Time;durP1;ratioP1;P1;durP2;ratioP2;P2;SDS_P1;SDS_P2;PMS_P1;PMS_P2;Temp;Humidity;BMP_temperature;BMP_pressure;BME280_temperature;BME280_humidity;BME280_pressure;Samples;Min_cycle;Max_cycle;Signal;HPM_P1;HPM_P2
2022/10/10 00:02:25;;;;;;;2.90;1.20;;;17.50;84.10;;;;;;5113861;28;20481;-78
2022/10/10 00:04:52;;;;;;;2.60;1.30;;;17.50;84.10;;;;;;5114278;28;20024;-77
2022/10/10 00:07:18;;;;;;;2.78;1.20;;;17.50;84.00;;;;;;5114064;28;20012;-78
2022/10/10 00:09:44;;;;;;;2.83;1.33;;;17.50;83.90;;;;;;5112479;28;20047;-78
2022/10/10 00:12:10;;;;;;;2.45;1.20;;;17.50;84.00;;;;;;5113703;28;20051;-79
2022/10/10 00:14:35;;;;;;;2.80;1.40;;;17.60;83.90;;;;;;5112398;28;20024;-79
2022/10/10 00:17:01;;;;;;;3.67;1.23;;;17.50;83.80;;;;;;5113474;28;20388;-80
2022/10/10 00:19:26;;;;;;;3.17;1.40;;;17.50;83.90;;;;;;5113701;28;20035;-78
2022/10/10 00:21:52;;;;;;;3.15;1.48;;;17.50;83.90;;;;;;5113403;28;20174;-77
2022/10/10 00:24:17;;;;;;;3.30;1.40;;;17.50;84.00;;;;;;5111084;28;20540;-79
2022/10/10 00:26:43;;;;;;;2.30;1.17;;;17.50;84.00;;;;;;5113152;28;20023;-78
2022/10/10 00:29:08;;;;;;;2.50;1.30;;;17.50;84.00;;;;;;5111704;28;20099;-78
2022/10/10 00:31:34;;;;;;;3.53;1.40;;;17.50;84.00;;;;;;5113330;28;20027;-78
2022/10/10 00:34:00;;;;;;;1.95;1.17;;;17.50;84.10;;;;;;5113416;28;20070;-78
2022/10/10 00:36:25;;;;;;;3.67;1.48;;;17.40;84.10;;;;;;5112779;28;20031;-77
2022/10/10 00:38:51;;;;;;;2.20;1.10;;;17.50;84.10;;;;;;5112854;28;20030;-78
2022/10/10 00:41:16;;;;;;;2.45;1.33;;;17.40;84.10;;;;;;5112797;28;20393;-79
2022/10/10 00:43:42;;;;;;;2.70;1.25;;;17.40;84.10;;;;;;5111453;28;20087;-78
2022/10/10 00:46:07;;;;;;;3.10;1.40;;;17.40;84.20;;;;;;5113154;28;20039;-78
2022/10/10 00:48:43;;;;;;;2.42;1.30;;;17.40;84.20;;;;;;5114039;28;20015;-79
2022/10/10 00:51:13;;;;;;;2.83;1.20;;;17.40;84.70;;;;;;5118104;28;20481;-78
2022/10/10 00:53:44;;;;;;;2.30;1.20;;;17.40;84.20;;;;;;5114635;28;20047;-78
2022/10/10 00:56:12;;;;;;;2.03;1.15;;;17.40;84.20;;;;;;5116023;28;20028;-79
2022/10/10 00:58:42;;;;;;;2.83;1.27;;;17.40;84.20;;;;;;5116210;28;20465;-78
2022/10/10 01:01:08;;;;;;;2.17;1.25;;;17.40;84.10;;;;;;5117607;28;20038;-80
2022/10/10 01:03:34;;;;;;;1.75;1.10;;;17.40;84.10;;;;;;5116786;28;20076;-79
2022/10/10 01:05:59;;;;;;;3.13;1.20;;;17.50;84.10;;;;;;5115915;28;20039;-79
2022/10/10 01:08:25;;;;;;;2.55;1.23;;;17.50;84.00;;;;;;5115766;28;20028;-77
2022/10/10 01:10:58;;;;;;;2.03;1.20;;;17.50;84.00;;;;;;5114787;28;20077;-78
2022/10/10 01:13:45;;;;;;;2.55;1.27;;;17.50;84.00;;;;;;5115886;28;20039;-77
2022/10/10 01:16:26;;;;;;;3.85;1.33;;;17.50;84.00;;;;;;5116722;28;20027;-78
2022/10/10 01:19:12;;;;;;;3.72;1.30;;;17.50;84.00;;;;;;5115734;28;20085;-76
2022/10/10 01:22:12;;;;;;;3.65;1.40;;;17.50;84.00;;;;;;5116631;28;20030;-79
2022/10/10 01:24:56;;;;;;;2.92;1.40;;;17.40;84.00;;;;;;5116713;28;20081;-78
2022/10/10 01:27:42;;;;;;;2.92;1.40;;;17.40;84.00;;;;;;5116243;28;20436;-78
2022/10/10 01:30:15;;;;;;;2.60;1.20;;;17.40;84.10;;;;;;5116246;28;20031;-78
2022/10/10 01:32:40;;;;;;;2.05;1.30;;;17.40;84.10;;;;;;5115931;28;20477;-77
2022/10/10 01:35:29;;;;;;;1.90;1.15;;;17.40;84.10;;;;;;5114943;28;20030;-78
2022/10/10 01:38:36;;;;;;;2.75;1.27;;;17.40;84.20;;;;;;5114348;28;20028;-78
2022/10/10 01:41:09;;;;;;;2.33;1.30;;;17.40;84.20;;;;;;5035981;28;20067;-79
2022/10/10 01:43:35;;;;;;;2.35;1.10;;;17.40;84.30;;;;;;5052333;28;20032;-78
2022/10/10 01:46:13;;;;;;;2.60;1.30;;;17.40;84.30;;;;;;5085052;28;20077;-78
2022/10/10 01:48:39;;;;;;;2.53;1.15;;;17.40;84.20;;;;;;5114135;28;20024;-79
2022/10/10 01:51:30;;;;;;;1.73;1.10;;;17.40;84.30;;;;;;5114355;28;20047;-78
2022/10/10 01:54:43;;;;;;;3.92;1.10;;;17.40;84.30;;;;;;5115295;28;20024;-77
2022/10/10 01:57:30;;;;;;;2.83;1.42;;;17.40;84.20;;;;;;5035243;28;20025;-78
2022/10/10 01:59:58;;;;;;;2.47;1.13;;;17.40;84.20;;;;;;5114967;28;20032;-78
2022/10/10 02:02:34;;;;;;;2.25;1.20;;;17.40;84.10;;;;;;5113460;28;20015;-77
2022/10/10 02:05:08;;;;;;;2.08;1.08;;;17.40;84.10;;;;;;5115341;28;20055;-77
2022/10/10 02:08:05;;;;;;;2.15;1.20;;;17.40;84.00;;;;;;5114661;27;20469;-78
2022/10/10 02:10:35;;;;;;;2.22;1.10;;;17.40;84.00;;;;;;5114970;27;20043;-79
2022/10/10 02:13:03;;;;;;;2.27;1.20;;;17.40;83.90;;;;;;5113326;28;20031;-77
2022/10/10 02:15:35;;;;;;;2.60;1.23;;;17.40;84.00;;;;;;5116497;28;20034;-77
2022/10/10 02:18:03;;;;;;;2.13;1.00;;;17.40;84.00;;;;;;5115018;28;20102;-78
2022/10/10 02:20:30;;;;;;;2.38;1.20;;;17.50;84.10;;;;;;5114881;28;20078;-78
2022/10/10 02:22:56;;;;;;;2.00;1.05;;;17.40;84.10;;;;;;5113146;28;20080;-78
2022/10/10 02:25:28;;;;;;;1.35;1.00;;;17.40;84.10;;;;;;5114473;28;20447;-77
2022/10/10 02:28:16;;;;;;;1.77;1.00;;;17.40;84.10;;;;;;5114320;28;20031;-77
2022/10/10 02:30:45;;;;;;;2.45;1.30;;;17.40;84.20;;;;;;5112749;28;20541;-78
2022/10/10 02:33:16;;;;;;;1.48;1.10;;;17.40;84.20;;;;;;5112793;28;20088;-78
2022/10/10 02:35:44;;;;;;;1.77;1.15;;;17.40;84.30;;;;;;5114222;28;20057;-78
2022/10/10 02:38:13;;;;;;;2.15;1.20;;;17.30;84.20;;;;;;5114219;28;20039;-77
2022/10/10 02:40:41;;;;;;;1.95;1.17;;;17.40;84.30;;;;;;5114233;28;20031;-77
2022/10/10 02:43:09;;;;;;;1.65;1.10;;;17.30;84.30;;;;;;5112456;28;20509;-77
2022/10/10 02:45:36;;;;;;;1.80;1.08;;;17.30;84.30;;;;;;5112462;28;20099;-77
2022/10/10 02:48:02;;;;;;;1.60;1.13;;;17.30;84.30;;;;;;5117060;27;20022;-77
2022/10/10 02:50:29;;;;;;;2.08;1.00;;;17.30;84.30;;;;;;5129974;27;20023;-77
2022/10/10 02:52:56;;;;;;;1.77;1.20;;;17.30;84.30;;;;;;5122960;27;20110;-77
2022/10/10 02:55:21;;;;;;;1.58;1.00;;;17.30;84.30;;;;;;5113594;28;20034;-77
2022/10/10 02:57:47;;;;;;;2.25;1.10;;;17.30;84.30;;;;;;5112462;28;20023;-78
2022/10/10 03:00:13;;;;;;;2.33;1.10;;;17.30;84.20;;;;;;5112251;28;20488;-78
2022/10/10 03:02:39;;;;;;;1.63;0.90;;;17.30;84.60;;;;;;5111682;28;20032;-77
2022/10/10 03:05:05;;;;;;;2.15;1.10;;;17.40;84.10;;;;;;5113524;28;20020;-77
2022/10/10 03:07:30;;;;;;;2.15;1.10;;;17.40;84.00;;;;;;5113421;27;20428;-77
2022/10/10 03:09:56;;;;;;;1.35;1.00;;;17.40;84.00;;;;;;5113433;28;20023;-76
2022/10/10 03:12:21;;;;;;;2.20;1.15;;;17.40;84.00;;;;;;5112327;28;20035;-77
2022/10/10 03:14:47;;;;;;;2.70;1.40;;;17.40;84.00;;;;;;5111990;28;20034;-77
2022/10/10 03:17:13;;;;;;;2.45;1.23;;;17.40;84.10;;;;;;5113267;28;20039;-77
2022/10/10 03:19:38;;;;;;;1.45;1.10;;;17.30;84.10;;;;;;5112514;28;20028;-78
2022/10/10 03:22:04;;;;;;;2.20;1.20;;;17.30;84.10;;;;;;5114255;28;20019;-77
2022/10/10 03:24:30;;;;;;;2.50;1.35;;;17.30;84.10;;;;;;5112977;28;20508;-78
2022/10/10 03:26:55;;;;;;;2.95;1.30;;;17.30;84.20;;;;;;5113343;28;20423;-78
2022/10/10 03:29:21;;;;;;;2.10;1.20;;;17.30;84.70;;;;;;5114334;28;20015;-78
2022/10/10 03:31:46;;;;;;;2.15;1.30;;;17.30;84.20;;;;;;5113338;28;20035;-78
2022/10/10 03:34:12;;;;;;;2.33;1.10;;;17.30;84.20;;;;;;5112493;28;20654;-78
2022/10/10 03:36:37;;;;;;;1.73;0.95;;;17.30;84.30;;;;;;5112749;28;20027;-78
2022/10/10 03:39:04;;;;;;;3.17;1.10;;;17.30;84.30;;;;;;5113876;28;20031;-77
2022/10/10 03:41:30;;;;;;;1.83;1.00;;;17.30;84.30;;;;;;5112414;28;20031;-78
2022/10/10 03:43:56;;;;;;;1.30;0.98;;;17.30;84.30;;;;;;5111987;28;20460;-78
2022/10/10 03:46:21;;;;;;;2.33;1.23;;;17.30;84.30;;;;;;5112337;28;20118;-78
2022/10/10 03:48:47;;;;;;;2.33;1.10;;;17.30;84.40;;;;;;5113722;28;20054;-78
2022/10/10 03:51:12;;;;;;;2.10;1.17;;;17.20;84.30;;;;;;5114055;28;20029;-77
2022/10/10 03:53:38;;;;;;;3.13;1.05;;;17.30;84.30;;;;;;5111841;28;20012;-78
2022/10/10 03:56:04;;;;;;;1.40;0.90;;;17.30;84.30;;;;;;5111824;28;20422;-77
2022/10/10 03:58:30;;;;;;;1.42;0.95;;;17.30;84.30;;;;;;5111286;28;20024;-78
2022/10/10 04:00:58;;;;;;;2.63;1.30;;;17.30;84.20;;;;;;5112047;28;20495;-78
2022/10/10 04:03:24;;;;;;;2.03;1.10;;;17.30;84.20;;;;;;5113196;28;20023;-77
2022/10/10 04:05:50;;;;;;;2.45;1.15;;;17.30;84.10;;;;;;5111976;28;20114;-78
2022/10/10 04:08:16;;;;;;;2.40;1.00;;;17.30;84.10;;;;;;5117178;28;20030;-75
2022/10/10 04:10:42;;;;;;;1.52;1.10;;;17.30;84.00;;;;;;5126531;28;20075;-77
2022/10/10 04:13:08;;;;;;;1.55;1.02;;;17.30;84.00;;;;;;5124601;27;20034;-77
2022/10/10 04:15:33;;;;;;;2.80;1.30;;;17.30;84.00;;;;;;5111293;28;20400;-78
2022/10/10 04:17:59;;;;;;;2.22;1.25;;;17.30;84.10;;;;;;5107046;28;20028;-76
2022/10/10 04:20:25;;;;;;;1.65;1.17;;;17.30;84.10;;;;;;5108049;28;20027;-76
2022/10/10 04:22:50;;;;;;;1.80;1.00;;;17.30;84.10;;;;;;5108030;28;20032;-78
2022/10/10 04:25:16;;;;;;;1.83;1.23;;;17.30;84.20;;;;;;5112152;28;20389;-78
2022/10/10 04:27:45;;;;;;;1.80;1.10;;;17.30;84.20;;;;;;5110640;28;20427;-77
2022/10/10 04:30:11;;;;;;;2.13;1.10;;;17.30;84.20;;;;;;5110471;28;20032;-76
2022/10/10 04:32:36;;;;;;;1.83;1.10;;;17.20;84.10;;;;;;5110763;27;20031;-78
2022/10/10 04:35:03;;;;;;;2.33;1.30;;;17.20;84.20;;;;;;5109802;28;20031;-77
2022/10/10 04:37:28;;;;;;;1.60;0.98;;;17.20;84.20;;;;;;5109604;28;20031;-78
2022/10/10 04:39:54;;;;;;;2.45;1.30;;;17.20;84.20;;;;;;5110981;28;20031;-78
2022/10/10 04:42:20;;;;;;;1.60;1.20;;;17.20;84.20;;;;;;5110003;28;20488;-77
2022/10/10 04:44:45;;;;;;;2.35;1.40;;;17.20;84.20;;;;;;5108573;28;20210;-77
2022/10/10 04:47:12;;;;;;;1.88;1.10;;;17.20;84.30;;;;;;5108985;27;20077;-79
2022/10/10 04:49:37;;;;;;;2.00;1.13;;;17.20;84.30;;;;;;5127148;27;20068;-77
2022/10/10 04:52:03;;;;;;;1.95;1.00;;;17.20;84.30;;;;;;5128875;27;20027;-77
2022/10/10 04:54:28;;;;;;;1.63;1.00;;;17.20;84.30;;;;;;5129348;27;20481;-77
2022/10/10 04:56:54;;;;;;;1.55;1.10;;;17.20;84.30;;;;;;5129819;27;20023;-81
2022/10/10 04:59:19;;;;;;;2.40;1.30;;;17.20;84.10;;;;;;5129182;27;20031;-75
2022/10/10 05:01:45;;;;;;;2.88;1.30;;;17.30;84.10;;;;;;5128193;27;20457;-75
2022/10/10 05:04:12;;;;;;;1.63;1.05;;;17.30;84.10;;;;;;5124313;27;20012;-78
2022/10/10 05:06:37;;;;;;;1.58;1.00;;;17.30;84.00;;;;;;5108490;28;20024;-76
2022/10/10 05:09:03;;;;;;;2.22;1.23;;;17.30;84.00;;;;;;5108677;28;20492;-76
2022/10/10 05:11:28;;;;;;;2.17;1.23;;;17.30;84.00;;;;;;5107578;28;20020;-76
2022/10/10 05:13:54;;;;;;;1.52;1.00;;;17.30;84.00;;;;;;5126482;27;20031;-75
2022/10/10 05:16:19;;;;;;;2.15;1.20;;;17.30;84.00;;;;;;5127685;27;20101;-77
2022/10/10 05:18:45;;;;;;;1.98;1.05;;;17.20;84.00;;;;;;5127372;27;20751;-77
2022/10/10 05:21:10;;;;;;;1.40;0.90;;;17.20;83.90;;;;;;5127271;27;20106;-78
2022/10/10 05:23:37;;;;;;;2.10;1.08;;;17.20;84.00;;;;;;5130038;27;20023;-78
2022/10/10 05:26:03;;;;;;;1.80;1.10;;;17.20;84.10;;;;;;5129858;27;20530;-77
2022/10/10 05:28:29;;;;;;;1.73;1.00;;;17.20;84.10;;;;;;5130183;27;20031;-76
2022/10/10 05:30:55;;;;;;;2.63;1.20;;;17.20;84.20;;;;;;5128159;27;20023;-78
2022/10/10 05:33:20;;;;;;;2.45;1.13;;;17.20;84.20;;;;;;5130764;27;20144;-76
2022/10/10 05:35:46;;;;;;;1.88;1.00;;;17.20;84.30;;;;;;5128419;27;20698;-77
2022/10/10 05:38:12;;;;;;;1.52;1.10;;;17.20;84.30;;;;;;5127057;27;20564;-78
2022/10/10 05:40:41;;;;;;;1.80;1.00;;;17.20;84.30;;;;;;5127539;27;20027;-77
2022/10/10 05:43:07;;;;;;;1.20;0.90;;;17.10;84.20;;;;;;5127711;27;20391;-76
2022/10/10 05:45:32;;;;;;;1.42;1.00;;;17.10;84.30;;;;;;5128530;27;20023;-77
2022/10/10 05:47:58;;;;;;;1.50;1.00;;;17.10;84.20;;;;;;5128951;27;20015;-77
2022/10/10 05:50:34;;;;;;;1.90;1.10;;;17.20;84.20;;;;;;5130343;27;20026;-75
2022/10/10 05:53:00;;;;;;;1.75;1.02;;;17.20;84.20;;;;;;5127870;27;20031;-76
2022/10/10 05:55:26;;;;;;;1.80;1.13;;;17.20;84.20;;;;;;5129268;27;20031;-76
2022/10/10 05:57:51;;;;;;;1.75;1.00;;;17.20;84.20;;;;;;5129174;27;20031;-77
2022/10/10 06:00:17;;;;;;;2.60;1.10;;;17.20;84.00;;;;;;5127868;27;20889;-75
2022/10/10 06:02:43;;;;;;;2.00;1.10;;;17.20;83.90;;;;;;5128052;27;20026;-77
2022/10/10 06:05:09;;;;;;;1.48;1.00;;;17.30;83.70;;;;;;5128969;27;20030;-76
2022/10/10 06:07:34;;;;;;;2.30;1.10;;;17.30;83.50;;;;;;5129037;27;20019;-78
2022/10/10 06:10:00;;;;;;;2.40;1.10;;;17.30;83.30;;;;;;5129284;27;20111;-77
2022/10/10 06:12:25;;;;;;;3.13;1.25;;;17.30;83.20;;;;;;5126755;27;20404;-77
2022/10/10 06:14:51;;;;;;;1.73;1.00;;;17.30;83.10;;;;;;5127624;27;20015;-78
2022/10/10 06:17:16;;;;;;;2.15;1.10;;;17.30;83.10;;;;;;5128783;27;20489;-78
2022/10/10 06:19:42;;;;;;;2.10;1.25;;;17.30;83.50;;;;;;5128605;27;20031;-77
2022/10/10 06:22:08;;;;;;;1.52;1.15;;;17.40;83.00;;;;;;5128320;27;20019;-76
2022/10/10 06:24:33;;;;;;;2.78;1.08;;;17.40;83.00;;;;;;5127416;27;20034;-76
2022/10/10 06:26:59;;;;;;;1.42;1.00;;;17.40;82.90;;;;;;5128361;27;20022;-76
2022/10/10 06:29:24;;;;;;;2.92;1.10;;;17.40;82.80;;;;;;5128704;27;20024;-77
2022/10/10 06:31:50;;;;;;;2.38;1.20;;;17.40;82.70;;;;;;5127727;27;20035;-79
2022/10/10 06:34:15;;;;;;;3.85;1.10;;;17.50;82.70;;;;;;5129074;27;20415;-77
2022/10/10 06:36:41;;;;;;;3.17;1.20;;;17.50;82.60;;;;;;5127360;27;20569;-77
2022/10/10 06:39:06;;;;;;;2.10;1.10;;;17.50;82.50;;;;;;5127555;27;20031;-76
2022/10/10 06:41:32;;;;;;;2.63;1.10;;;17.50;82.30;;;;;;5127912;27;20065;-77
2022/10/10 06:43:57;;;;;;;1.67;1.00;;;17.50;82.20;;;;;;5127821;27;20023;-77
2022/10/10 06:46:23;;;;;;;2.47;1.17;;;17.60;82.70;;;;;;5126459;27;20129;-76
2022/10/10 06:48:48;;;;;;;2.33;1.20;;;17.60;82.00;;;;;;5127439;27;20181;-76
2022/10/10 06:51:15;;;;;;;1.88;1.00;;;17.60;82.00;;;;;;5128410;27;20015;-77
2022/10/10 06:53:41;;;;;;;3.13;1.20;;;17.60;81.80;;;;;;5126759;27;20080;-77
2022/10/10 06:56:09;;;;;;;3.67;1.20;;;17.70;81.90;;;;;;5128066;27;20031;-77
2022/10/10 06:58:34;;;;;;;1.45;1.10;;;17.70;81.70;;;;;;5128321;27;20027;-76
2022/10/10 07:01:02;;;;;;;2.35;1.10;;;17.90;81.50;;;;;;5127987;27;20031;-77
2022/10/10 07:03:29;;;;;;;3.30;1.10;;;17.80;81.20;;;;;;5125928;27;20388;-77
2022/10/10 07:05:57;;;;;;;1.70;1.08;;;17.90;81.10;;;;;;5127844;27;20019;-78
2022/10/10 07:08:23;;;;;;;4.18;1.30;;;17.90;80.90;;;;;;5128449;27;20369;-78
2022/10/10 07:10:49;;;;;;;2.45;1.27;;;17.90;80.90;;;;;;5127675;27;20027;-75
2022/10/10 07:13:14;;;;;;;2.75;1.10;;;17.90;80.80;;;;;;5127626;27;20072;-77
2022/10/10 07:15:40;;;;;;;1.40;1.10;;;17.90;80.80;;;;;;5126302;27;20046;-76
2022/10/10 07:18:06;;;;;;;1.90;1.00;;;18.00;80.80;;;;;;5129111;27;20488;-78
2022/10/10 07:20:33;;;;;;;1.75;1.02;;;17.90;80.80;;;;;;5126681;27;20023;-77
2022/10/10 07:22:59;;;;;;;1.92;1.10;;;18.00;80.80;;;;;;5126652;27;20031;-77
2022/10/10 07:25:25;;;;;;;1.70;1.00;;;18.00;80.90;;;;;;5126397;27;20118;-79
2022/10/10 07:27:50;;;;;;;1.23;1.00;;;18.00;80.80;;;;;;5128299;27;20023;-77
2022/10/10 07:30:16;;;;;;;1.90;1.10;;;18.00;80.70;;;;;;5126609;27;20106;-77
2022/10/10 07:32:42;;;;;;;1.52;1.00;;;18.00;80.70;;;;;;5127303;27;20416;-78
2022/10/10 07:35:10;;;;;;;3.08;1.20;;;18.00;80.60;;;;;;5126384;27;20062;-76
2022/10/10 07:37:35;;;;;;;3.03;1.20;;;18.00;80.50;;;;;;5127566;27;20022;-77
2022/10/10 07:40:01;;;;;;;1.38;1.00;;;18.10;81.10;;;;;;5126213;27;20023;-77
2022/10/10 07:42:26;;;;;;;1.50;1.00;;;18.10;80.40;;;;;;5126091;27;20396;-77
2022/10/10 07:44:52;;;;;;;3.58;1.30;;;18.10;80.40;;;;;;5127009;27;20195;-76
2022/10/10 07:47:17;;;;;;;1.55;1.10;;;18.10;80.30;;;;;;5128086;27;20106;-78
2022/10/10 07:49:43;;;;;;;1.27;1.00;;;18.20;80.20;;;;;;5127820;27;20468;-77
2022/10/10 07:52:08;;;;;;;1.40;1.02;;;18.20;80.80;;;;;;5126786;27;20028;-78
2022/10/10 07:54:34;;;;;;;1.65;1.10;;;18.20;80.10;;;;;;5127127;27;20098;-77
2022/10/10 07:56:59;;;;;;;1.38;0.90;;;18.30;79.90;;;;;;5127460;27;20451;-76
2022/10/10 07:59:25;;;;;;;2.40;1.20;;;18.30;79.70;;;;;;5127129;27;20019;-78
2022/10/10 08:01:51;;;;;;;1.90;1.10;;;18.40;79.50;;;;;;5127503;27;20027;-77
2022/10/10 08:04:17;;;;;;;1.77;1.00;;;18.30;79.30;;;;;;5126267;28;20023;-78
2022/10/10 08:06:42;;;;;;;2.40;1.10;;;18.50;79.30;;;;;;5126124;28;20019;-79
2022/10/10 08:09:08;;;;;;;1.80;1.10;;;18.50;79.20;;;;;;5129308;28;20024;-78
2022/10/10 08:11:34;;;;;;;1.83;1.10;;;18.60;79.20;;;;;;5128069;28;20817;-77
2022/10/10 08:14:00;;;;;;;2.30;1.10;;;18.50;79.70;;;;;;5127496;28;20039;-78
2022/10/10 08:16:25;;;;;;;1.85;1.10;;;18.50;79.20;;;;;;5128865;28;20054;-77
2022/10/10 08:18:51;;;;;;;2.40;1.25;;;18.50;79.20;;;;;;5126780;28;20079;-77
2022/10/10 08:21:17;;;;;;;2.15;1.35;;;18.50;79.20;;;;;;5128175;28;20107;-78
2022/10/10 08:23:43;;;;;;;2.67;1.33;;;18.50;79.20;;;;;;5126508;28;20051;-78
2022/10/10 08:26:11;;;;;;;1.98;1.23;;;18.50;79.20;;;;;;5127945;28;20066;-76
2022/10/10 08:28:37;;;;;;;1.65;1.20;;;18.50;79.20;;;;;;5126500;28;20027;-77
2022/10/10 08:31:08;;;;;;;1.00;0.90;;;18.50;79.30;;;;;;5125553;28;20114;-78
2022/10/10 08:33:34;;;;;;;1.65;1.10;;;18.50;79.20;;;;;;5125372;28;20059;-76
2022/10/10 08:36:04;;;;;;;1.75;1.10;;;18.50;79.20;;;;;;5126949;28;20108;-77
2022/10/10 08:38:29;;;;;;;2.13;1.17;;;18.50;79.10;;;;;;5126766;27;20074;-77
2022/10/10 08:40:58;;;;;;;1.80;1.10;;;18.60;79.20;;;;;;5126916;28;20096;-78
2022/10/10 08:43:32;;;;;;;1.67;1.05;;;18.60;79.20;;;;;;5126402;27;20106;-77
2022/10/10 08:46:02;;;;;;;2.13;1.05;;;18.60;79.10;;;;;;5125439;28;20116;-76
2022/10/10 08:48:29;;;;;;;1.67;1.05;;;18.60;79.10;;;;;;5126828;27;20031;-79
2022/10/10 08:51:01;;;;;;;1.83;1.27;;;18.60;79.10;;;;;;5125662;28;20511;-77
2022/10/10 08:53:39;;;;;;;1.65;1.00;;;18.70;79.10;;;;;;5126197;27;20026;-77
2022/10/10 08:56:07;;;;;;;1.35;0.90;;;18.70;79.00;;;;;;5126847;27;20019;-77
2022/10/10 08:58:37;;;;;;;1.27;0.98;;;18.70;79.00;;;;;;5126345;27;20098;-75
2022/10/10 09:01:06;;;;;;;1.85;1.15;;;18.70;79.00;;;;;;5125150;28;20080;-76
2022/10/10 09:03:45;;;;;;;1.77;1.08;;;18.70;78.90;;;;;;5125918;28;20023;-77
2022/10/10 09:06:29;;;;;;;1.42;1.00;;;18.70;78.90;;;;;;5126621;28;20083;-79
2022/10/10 09:09:29;;;;;;;1.88;1.10;;;18.70;78.80;;;;;;5126168;27;20026;-76
2022/10/10 09:12:17;;;;;;;2.17;1.08;;;18.80;79.00;;;;;;5128524;27;20031;-76
2022/10/10 09:15:11;;;;;;;2.35;1.20;;;18.70;79.00;;;;;;5128895;27;20036;-77
2022/10/10 09:17:45;;;;;;;1.15;0.90;;;18.70;79.00;;;;;;5129246;27;20610;-77
2022/10/10 09:20:27;;;;;;;1.55;1.05;;;18.70;79.10;;;;;;5128855;27;20415;-76
2022/10/10 09:22:56;;;;;;;2.13;1.20;;;18.70;79.30;;;;;;5129133;27;20088;-78
2022/10/10 09:25:26;;;;;;;1.65;0.90;;;18.70;79.40;;;;;;5130165;27;20118;-78
2022/10/10 09:28:11;;;;;;;2.10;1.30;;;18.70;79.50;;;;;;5129905;27;20019;-76
2022/10/10 09:30:43;;;;;;;1.10;1.00;;;18.70;79.70;;;;;;5129416;27;20027;-77
2022/10/10 09:33:28;;;;;;;1.33;1.00;;;18.60;79.80;;;;;;5127814;27;20051;-76
2022/10/10 09:35:56;;;;;;;1.42;1.10;;;18.60;79.90;;;;;;5129625;27;20541;-77
2022/10/10 09:38:26;;;;;;;1.20;1.00;;;18.60;79.90;;;;;;5129560;27;20115;-77
2022/10/10 09:41:04;;;;;;;1.73;1.00;;;18.60;79.90;;;;;;5129615;27;20027;-77
2022/10/10 09:43:32;;;;;;;1.48;1.10;;;18.60;80.50;;;;;;5128789;27;20088;-76
2022/10/10 09:45:58;;;;;;;1.65;1.10;;;18.60;79.90;;;;;;5129777;27;20050;-76
2022/10/10 09:48:37;;;;;;;1.30;0.93;;;18.60;79.90;;;;;;5129452;27;20019;-76
2022/10/10 09:51:05;;;;;;;1.30;1.00;;;18.70;79.80;;;;;;5129655;27;20031;-77
2022/10/10 09:53:31;;;;;;;1.20;1.00;;;18.70;79.80;;;;;;5128593;27;20024;-76
2022/10/10 09:55:58;;;;;;;1.70;1.05;;;18.70;79.70;;;;;;5129261;27;20588;-76
2022/10/10 09:58:44;;;;;;;1.17;1.00;;;18.70;79.60;;;;;;5128262;27;20023;-77
2022/10/10 10:01:25;;;;;;;1.50;1.00;;;18.70;79.50;;;;;;5129142;27;20564;-77
2022/10/10 10:04:06;;;;;;;1.92;1.20;;;18.80;79.50;;;;;;5126942;27;20770;-76
2022/10/10 10:06:31;;;;;;;1.50;0.98;;;18.80;79.40;;;;;;5128909;27;20027;-77
2022/10/10 10:09:01;;;;;;;2.28;1.10;;;18.80;79.40;;;;;;5129061;27;20031;-76
2022/10/10 10:11:31;;;;;;;1.63;1.00;;;18.80;79.40;;;;;;5125713;27;20038;-76
2022/10/10 10:14:01;;;;;;;1.08;0.93;;;18.70;79.40;;;;;;5116137;27;20042;-77
2022/10/10 10:16:38;;;;;;;1.77;1.10;;;18.80;79.40;;;;;;5128027;27;20110;-77
2022/10/10 10:19:05;;;;;;;1.98;1.25;;;18.70;79.40;;;;;;5127032;27;20086;-77
2022/10/10 10:21:45;;;;;;;1.98;1.10;;;18.70;79.60;;;;;;5126712;27;20027;-76
2022/10/10 10:24:28;;;;;;;1.40;1.00;;;18.70;79.70;;;;;;5105472;28;20019;-79
2022/10/10 10:26:53;;;;;;;1.23;0.82;;;18.70;79.80;;;;;;5107161;28;20023;-76
2022/10/10 10:29:45;;;;;;;1.55;1.00;;;18.70;79.80;;;;;;5108741;28;20035;-77
2022/10/10 10:32:39;;;;;;;1.83;1.00;;;18.70;79.80;;;;;;5108477;28;20035;-77
2022/10/10 10:35:26;;;;;;;1.95;1.10;;;18.80;79.90;;;;;;5075008;28;20115;-76
2022/10/10 10:38:12;;;;;;;1.63;1.20;;;18.70;79.30;;;;;;5107511;28;20031;-79
2022/10/10 10:40:44;;;;;;;2.38;1.10;;;18.70;79.60;;;;;;5108575;28;20055;-79
2022/10/10 10:43:27;;;;;;;3.63;1.10;;;18.80;79.60;;;;;;5106549;28;20080;-78
2022/10/10 10:46:02;;;;;;;2.55;1.20;;;18.80;79.60;;;;;;5107678;28;20476;-80
2022/10/10 10:48:58;;;;;;;3.05;1.30;;;18.70;79.50;;;;;;5108606;28;20024;-78
2022/10/10 10:51:55;;;;;;;3.22;1.23;;;18.80;79.50;;;;;;5107696;28;20520;-78
2022/10/10 10:54:24;;;;;;;2.38;1.20;;;18.80;79.40;;;;;;5068705;28;20040;-77
2022/10/10 10:56:58;;;;;;;2.78;1.20;;;18.80;79.30;;;;;;5108589;28;20070;-78
2022/10/10 10:59:57;;;;;;;2.38;1.10;;;18.90;79.20;;;;;;5107295;28;20119;-77
2022/10/10 11:03:05;;;;;;;1.95;1.10;;;18.90;79.20;;;;;;5097051;28;20043;-77
2022/10/10 11:05:35;;;;;;;2.83;1.25;;;18.90;79.20;;;;;;5108780;28;20030;-79
2022/10/10 11:08:25;;;;;;;2.30;1.00;;;18.90;79.30;;;;;;5108933;28;20032;-78
2022/10/10 11:11:46;;;;;;;2.17;1.10;;;18.80;79.30;;;;;;5108158;28;20073;-77
2022/10/10 11:14:28;;;;;;;2.72;1.20;;;18.80;79.50;;;;;;5088262;28;20493;-76
2022/10/10 11:16:59;;;;;;;2.58;1.38;;;18.80;79.60;;;;;;5122557;27;20065;-76
2022/10/10 11:19:43;;;;;;;1.73;1.00;;;18.90;79.70;;;;;;5125066;27;20050;-75
2022/10/10 11:22:14;;;;;;;2.80;1.10;;;18.80;79.70;;;;;;5125807;27;20027;-75
2022/10/10 11:25:04;;;;;;;1.92;1.00;;;18.70;79.70;;;;;;5126554;27;20050;-79
2022/10/10 11:27:47;;;;;;;2.55;1.10;;;18.70;79.90;;;;;;5128469;27;20404;-76
2022/10/10 11:30:38;;;;;;;1.60;1.10;;;18.70;80.00;;;;;;5126826;27;20079;-77
2022/10/10 11:33:17;;;;;;;1.77;1.15;;;18.70;79.90;;;;;;5127569;27;20023;-77
2022/10/10 11:36:01;;;;;;;1.63;1.08;;;18.70;80.00;;;;;;5127701;27;20028;-75
2022/10/10 11:38:37;;;;;;;1.63;1.05;;;18.70;80.00;;;;;;5128583;27;20019;-77
2022/10/10 11:41:06;;;;;;;2.40;1.40;;;18.70;80.00;;;;;;5127694;27;20031;-77
2022/10/10 11:44:17;;;;;;;2.08;1.10;;;18.70;80.00;;;;;;5127367;27;20023;-78
2022/10/10 11:46:45;;;;;;;2.45;1.10;;;18.70;80.00;;;;;;5097601;27;20035;-78
2022/10/10 11:49:11;;;;;;;1.95;1.08;;;18.80;80.00;;;;;;5127183;27;20043;-78
2022/10/10 11:52:01;;;;;;;2.05;1.20;;;18.70;79.90;;;;;;5127949;27;20030;-78
2022/10/10 11:54:39;;;;;;;2.50;1.38;;;18.80;79.90;;;;;;5128546;27;20400;-78
2022/10/10 11:57:12;;;;;;;1.90;1.02;;;18.80;79.80;;;;;;5129091;27;20049;-77
2022/10/10 11:59:52;;;;;;;1.75;1.10;;;18.90;79.70;;;;;;5129809;27;20051;-77
2022/10/10 12:02:33;;;;;;;1.55;1.10;;;18.80;79.70;;;;;;5127890;27;20027;-78
2022/10/10 12:04:59;;;;;;;1.83;1.10;;;18.80;79.80;;;;;;5128826;27;20087;-78
2022/10/10 12:07:42;;;;;;;1.60;1.00;;;18.80;80.00;;;;;;5127521;28;20015;-77
2022/10/10 12:10:20;;;;;;;1.98;1.00;;;18.70;80.00;;;;;;5128983;27;20034;-78
2022/10/10 12:12:50;;;;;;;2.05;1.30;;;18.70;80.00;;;;;;5127156;28;20450;-78
2022/10/10 12:15:29;;;;;;;1.75;1.02;;;18.70;80.00;;;;;;5129179;27;20035;-79
2022/10/10 12:17:56;;;;;;;1.40;0.90;;;18.70;80.20;;;;;;5128437;28;20030;-76
2022/10/10 12:20:25;;;;;;;1.75;0.98;;;18.70;80.40;;;;;;5127159;28;20024;-77
2022/10/10 12:23:28;;;;;;;1.58;1.00;;;18.60;80.40;;;;;;5128263;27;20019;-78
2022/10/10 12:25:54;;;;;;;1.88;1.08;;;18.60;80.60;;;;;;5127125;28;20729;-78
2022/10/10 12:28:36;;;;;;;2.40;1.17;;;18.60;80.70;;;;;;5128312;27;20032;-77
2022/10/10 12:31:01;;;;;;;2.33;1.02;;;18.50;80.80;;;;;;5128619;27;20023;-78
2022/10/10 12:33:30;;;;;;;2.05;1.10;;;18.50;81.00;;;;;;5126857;28;20031;-78
2022/10/10 12:35:55;;;;;;;1.45;1.00;;;18.50;81.00;;;;;;5126998;28;20030;-78
2022/10/10 12:38:26;;;;;;;2.15;1.00;;;18.40;81.00;;;;;;5126893;28;20118;-76
2022/10/10 12:41:15;;;;;;;2.53;1.00;;;18.50;81.10;;;;;;5128615;27;20564;-78
2022/10/10 12:44:08;;;;;;;1.63;1.02;;;18.40;81.10;;;;;;5127653;27;20043;-77
2022/10/10 12:46:33;;;;;;;1.65;1.02;;;18.50;81.20;;;;;;5130889;27;20023;-77
2022/10/10 12:49:03;;;;;;;2.08;1.05;;;18.50;81.20;;;;;;5130625;27;20476;-77
2022/10/10 12:51:31;;;;;;;1.85;1.00;;;18.50;81.10;;;;;;5130302;27;20026;-78
2022/10/10 12:54:00;;;;;;;1.73;1.13;;;18.50;81.10;;;;;;5131727;27;20025;-77
2022/10/10 12:56:38;;;;;;;1.92;1.02;;;18.50;81.00;;;;;;5130314;27;20023;-76
2022/10/10 12:59:06;;;;;;;1.42;1.00;;;18.50;81.00;;;;;;5130352;27;20027;-78
2022/10/10 13:01:35;;;;;;;2.38;1.25;;;18.50;81.10;;;;;;5131609;27;20034;-78
2022/10/10 13:04:01;;;;;;;1.85;1.08;;;18.50;81.30;;;;;;5130009;27;20031;-78
2022/10/10 13:06:36;;;;;;;2.70;1.23;;;18.40;81.30;;;;;;5131799;27;20106;-77
2022/10/10 13:09:07;;;;;;;2.33;1.10;;;18.40;81.40;;;;;;5130444;27;20023;-77